Time;durP1;ratioP1;P1;durP2;ratioP2;P2;SDS_P1;SDS_P2;PMS_P1;PMS_P2;Temp;Humidity;BMP_temperature;BMP_pressure;BME280_temperature;BME280_humidity;BME280_pressure;Samples;Min_cycle;Max_cycle;Signal;HPM_P1;HPM_P2
2022/03/24 00:01:46;;;;;;;7.78;6.22;;;27.60;99.90;;;;;;4158870;28;20111;-68
2022/03/24 00:04:07;;;;;;;9.38;5.60;;;27.70;99.90;;;;;;4159290;28;20058;-69
2022/03/24 00:06:14;;;;;;;7.63;6.15;;;27.70;99.90;;;;;;4159154;28;20107;-69
2022/03/24 00:08:18;;;;;;;8.57;5.30;;;27.70;99.90;;;;;;4157759;28;20045;-69
2022/03/24 00:10:30;;;;;;;6.00;4.68;;;27.80;99.90;;;;;;4121076;28;20050;-69
2022/03/24 00:12:36;;;;;;;9.25;5.53;;;27.70;99.90;;;;;;4158533;28;20045;-69
2022/03/24 00:14:41;;;;;;;6.63;4.80;;;27.80;99.90;;;;;;4158550;28;20049;-70
2022/03/24 00:16:50;;;;;;;7.72;4.82;;;27.70;99.90;;;;;;4156594;28;20045;-69
2022/03/24 00:18:55;;;;;;;7.65;5.00;;;27.80;99.90;;;;;;4153416;28;20508;-69
2022/03/24 00:21:00;;;;;;;7.63;4.97;;;27.80;99.90;;;;;;4156153;28;20038;-69
2022/03/24 00:23:07;;;;;;;6.85;5.30;;;27.80;99.90;;;;;;4156949;28;20508;-69
2022/03/24 00:25:14;;;;;;;7.28;5.35;;;27.70;99.90;;;;;;4153164;28;20045;-70
2022/03/24 00:27:19;;;;;;;6.13;4.78;;;27.80;99.90;;;;;;4157580;28;20068;-69
2022/03/24 00:29:29;;;;;;;6.82;4.68;;;27.80;99.90;;;;;;4155932;28;20056;-70
2022/03/24 00:31:33;;;;;;;8.73;5.03;;;27.80;99.90;;;;;;4157074;28;20037;-70
2022/03/24 00:33:38;;;;;;;5.68;5.10;;;27.90;99.90;;;;;;4156511;28;20045;-69
2022/03/24 00:35:46;;;;;;;6.97;5.63;;;27.90;99.90;;;;;;4115688;28;20039;-69
2022/03/24 00:37:51;;;;;;;7.68;5.43;;;27.90;99.90;;;;;;4160161;28;20840;-69
2022/03/24 00:39:55;;;;;;;7.85;5.78;;;27.90;99.90;;;;;;4161337;28;20049;-70
2022/03/24 00:42:07;;;;;;;8.13;5.90;;;27.90;99.90;;;;;;4158673;28;20092;-69
2022/03/24 00:44:12;;;;;;;7.22;5.38;;;27.90;99.90;;;;;;4162149;28;20191;-69
2022/03/24 00:46:23;;;;;;;8.18;5.15;;;27.90;99.90;;;;;;4162499;28;20076;-70
2022/03/24 00:48:31;;;;;;;6.68;5.60;;;28.00;99.90;;;;;;4137209;28;20065;-70
2022/03/24 00:50:36;;;;;;;8.00;5.63;;;28.00;99.90;;;;;;4161067;28;20631;-69
2022/03/24 00:52:45;;;;;;;6.00;5.03;;;28.00;99.90;;;;;;4159844;28;20045;-70
2022/03/24 00:54:54;;;;;;;6.38;5.75;;;28.00;99.90;;;;;;4158891;28;20053;-68
2022/03/24 00:57:01;;;;;;;9.90;8.07;;;27.90;99.90;;;;;;4161602;28;20103;-69
2022/03/24 00:59:09;;;;;;;10.80;7.57;;;27.90;99.90;;;;;;4159421;28;20111;-69
2022/03/24 01:01:19;;;;;;;11.10;8.35;;;27.90;99.90;;;;;;4161379;28;20056;-69
2022/03/24 01:03:24;;;;;;;12.65;8.45;;;27.90;99.90;;;;;;4159627;28;20056;-69
2022/03/24 01:05:30;;;;;;;13.05;9.73;;;27.90;99.90;;;;;;4158385;28;20041;-70
2022/03/24 01:07:36;;;;;;;11.88;7.80;;;27.90;99.90;;;;;;4159770;28;20047;-69
2022/03/24 01:09:41;;;;;;;10.48;7.07;;;27.90;99.90;;;;;;4160118;28;20460;-70
2022/03/24 01:11:48;;;;;;;9.88;6.47;;;27.90;99.90;;;;;;4160543;28;20041;-69
2022/03/24 01:13:54;;;;;;;9.55;6.25;;;27.90;99.90;;;;;;4160808;28;20088;-69
2022/03/24 01:16:04;;;;;;;8.05;7.07;;;27.90;99.90;;;;;;4158624;28;20575;-69
2022/03/24 01:18:10;;;;;;;12.27;8.23;;;27.90;99.90;;;;;;4160768;28;20046;-70
2022/03/24 01:20:21;;;;;;;12.02;9.82;;;27.90;99.90;;;;;;4161262;28;20111;-69
2022/03/24 01:22:25;;;;;;;12.38;9.35;;;28.00;99.90;;;;;;4159726;28;20045;-70
2022/03/24 01:24:30;;;;;;;11.27;8.23;;;28.00;99.90;;;;;;4150211;28;20076;-69
2022/03/24 01:26:38;;;;;;;11.02;7.18;;;28.00;99.90;;;;;;4125422;28;20616;-69
2022/03/24 01:28:44;;;;;;;7.72;6.38;;;28.10;99.90;;;;;;4160795;28;20103;-70
2022/03/24 01:30:48;;;;;;;7.43;6.05;;;28.20;99.90;;;;;;4158885;28;20495;-70
2022/03/24 01:32:57;;;;;;;7.80;6.53;;;28.20;99.90;;;;;;4161228;28;20072;-69
2022/03/24 01:35:03;;;;;;;8.40;7.07;;;28.30;99.90;;;;;;4157549;28;20103;-69
2022/03/24 01:37:13;;;;;;;8.13;6.80;;;28.40;99.90;;;;;;4160092;28;20581;-70
2022/03/24 01:39:21;;;;;;;8.07;6.35;;;28.40;99.90;;;;;;4159729;28;20042;-69
2022/03/24 01:41:27;;;;;;;9.13;6.72;;;28.40;99.90;;;;;;4159908;28;20048;-69
2022/03/24 01:43:32;;;;;;;8.07;6.25;;;28.50;99.90;;;;;;4158918;28;20133;-69
2022/03/24 01:45:41;;;;;;;7.80;6.55;;;28.60;99.90;;;;;;4159223;28;20080;-69
2022/03/24 01:47:47;;;;;;;9.30;7.45;;;28.60;99.90;;;;;;4159876;28;20045;-70
2022/03/24 01:49:58;;;;;;;7.53;6.75;;;28.60;99.90;;;;;;4158087;28;20041;-69
2022/03/24 01:52:08;;;;;;;9.00;7.07;;;28.60;99.90;;;;;;4157236;28;20641;-69
2022/03/24 01:54:14;;;;;;;8.90;7.18;;;28.60;99.90;;;;;;4158027;28;20033;-69
2022/03/24 01:56:22;;;;;;;10.18;7.72;;;28.60;99.90;;;;;;4157872;28;20037;-70
2022/03/24 01:58:29;;;;;;;9.02;7.57;;;28.70;99.90;;;;;;4166991;28;20081;-68
2022/03/24 02:00:35;;;;;;;9.35;7.35;;;28.70;99.90;;;;;;4110188;28;20053;-68
2022/03/24 02:02:44;;;;;;;9.73;7.07;;;28.70;99.90;;;;;;4158860;28;20049;-69
2022/03/24 02:04:56;;;;;;;9.15;7.15;;;28.80;99.90;;;;;;4158243;28;20045;-69
2022/03/24 02:07:11;;;;;;;10.75;7.90;;;28.80;99.90;;;;;;4155039;28;20142;-68
2022/03/24 02:09:21;;;;;;;9.18;7.20;;;28.70;99.90;;;;;;4143046;28;20057;-69
2022/03/24 02:11:34;;;;;;;9.60;7.70;;;28.70;99.90;;;;;;4143301;28;20572;-68
2022/03/24 02:13:41;;;;;;;9.25;6.95;;;28.70;99.90;;;;;;4158064;28;20052;-69
2022/03/24 02:15:49;;;;;;;11.85;8.18;;;28.70;99.90;;;;;;4159828;28;20942;-68
2022/03/24 02:17:59;;;;;;;9.10;7.55;;;28.70;99.90;;;;;;4133162;28;20163;-69
2022/03/24 02:20:05;;;;;;;9.60;7.53;;;28.70;99.90;;;;;;4168802;28;20053;-68
2022/03/24 02:22:15;;;;;;;10.07;7.25;;;28.80;99.90;;;;;;4164788;28;20053;-68
2022/03/24 02:24:22;;;;;;;10.60;7.03;;;28.80;99.90;;;;;;4169996;28;20044;-69
2022/03/24 02:26:27;;;;;;;9.50;7.38;;;28.90;99.90;;;;;;4160809;28;20065;-69
2022/03/24 02:28:34;;;;;;;10.00;7.22;;;29.00;99.90;;;;;;4159861;28;20127;-68
2022/03/24 02:30:44;;;;;;;11.02;7.47;;;29.00;99.90;;;;;;4160710;28;20045;-69
2022/03/24 02:32:49;;;;;;;9.45;7.07;;;29.10;99.90;;;;;;4161291;28;20042;-69
2022/03/24 02:34:54;;;;;;;8.15;6.18;;;29.20;99.90;;;;;;4161238;28;20045;-69
2022/03/24 02:37:00;;;;;;;9.93;6.47;;;29.20;99.90;;;;;;4160171;28;20041;-69
2022/03/24 02:39:06;;;;;;;10.18;7.43;;;29.30;99.90;;;;;;4160102;28;20076;-70
2022/03/24 02:41:11;;;;;;;9.68;6.57;;;29.40;99.90;;;;;;4159569;28;20049;-69
2022/03/24 02:43:24;;;;;;;8.30;6.90;;;29.40;99.90;;;;;;4158392;28;20393;-69
2022/03/24 02:45:30;;;;;;;10.30;6.82;;;29.50;99.90;;;;;;4158644;28;20049;-69
2022/03/24 02:47:38;;;;;;;8.15;6.88;;;29.70;99.90;;;;;;4157042;28;20068;-69
2022/03/24 02:49:44;;;;;;;8.13;6.65;;;29.70;99.90;;;;;;4159777;28;20077;-69
2022/03/24 02:51:50;;;;;;;8.32;6.60;;;29.80;99.90;;;;;;4159779;28;20038;-68
2022/03/24 02:53:55;;;;;;;8.18;6.40;;;29.90;99.90;;;;;;4160099;28;20470;-69
2022/03/24 02:56:00;;;;;;;7.00;6.18;;;30.00;99.90;;;;;;4159373;28;20044;-69
2022/03/24 02:58:05;;;;;;;8.65;6.20;;;30.00;99.90;;;;;;4160187;28;20056;-68
2022/03/24 03:00:18;;;;;;;7.30;6.03;;;30.10;99.90;;;;;;4183486;28;20512;-69
2022/03/24 03:02:25;;;;;;;7.75;5.97;;;30.10;99.90;;;;;;4167995;28;20049;-69
2022/03/24 03:04:32;;;;;;;15.48;6.35;;;30.10;99.90;;;;;;4167499;28;20091;-69
2022/03/24 03:06:37;;;;;;;8.32;6.00;;;30.10;99.90;;;;;;4167031;28;20049;-69
2022/03/24 03:08:49;;;;;;;7.50;5.90;;;30.10;99.90;;;;;;4149094;28;20069;-69
2022/03/24 03:10:55;;;;;;;6.97;5.15;;;30.20;99.90;;;;;;4166844;28;20034;-69
2022/03/24 03:13:01;;;;;;;8.82;5.60;;;30.20;99.90;;;;;;4149249;28;20104;-69
2022/03/24 03:15:11;;;;;;;9.20;5.30;;;30.20;99.90;;;;;;4148516;28;20058;-69
2022/03/24 03:17:17;;;;;;;7.00;5.00;;;30.20;99.90;;;;;;4147479;28;20637;-68
2022/03/24 03:19:23;;;;;;;7.32;5.38;;;30.30;99.90;;;;;;4150061;28;20597;-68
2022/03/24 03:21:30;;;;;;;6.72;5.82;;;30.30;99.90;;;;;;4148435;28;20045;-69
2022/03/24 03:23:39;;;;;;;5.72;5.13;;;30.30;99.90;;;;;;4148546;28;20054;-68
2022/03/24 03:25:44;;;;;;;6.78;5.00;;;30.30;99.90;;;;;;4148300;28;20052;-69
2022/03/24 03:27:54;;;;;;;7.15;5.00;;;30.30;99.90;;;;;;4148742;28;20045;-68
2022/03/24 03:30:00;;;;;;;5.65;4.85;;;30.40;99.90;;;;;;4139625;28;20616;-70
2022/03/24 03:32:06;;;;;;;5.82;4.57;;;30.40;99.90;;;;;;4148056;28;20096;-69
2022/03/24 03:34:17;;;;;;;18.38;16.42;;;30.50;99.90;;;;;;4149306;28;20067;-69
2022/03/24 03:36:23;;;;;;;15.10;13.27;;;30.50;99.90;;;;;;4149986;28;20124;-69
2022/03/24 03:38:30;;;;;;;17.13;13.93;;;30.50;99.90;;;;;;4148442;28;20054;-69
2022/03/24 03:40:38;;;;;;;13.77;11.68;;;30.50;99.90;;;;;;4147640;28;20511;-68
2022/03/24 03:42:43;;;;;;;10.20;9.20;;;30.50;99.90;;;;;;4146471;28;20479;-68
2022/03/24 03:44:48;;;;;;;9.38;7.13;;;30.60;99.90;;;;;;4155379;28;20069;-68
2022/03/24 03:46:58;;;;;;;5.88;5.05;;;30.60;99.90;;;;;;4156585;28;20061;-68
2022/03/24 03:49:07;;;;;;;5.82;5.18;;;30.60;99.90;;;;;;4159071;28;20767;-69
2022/03/24 03:51:14;;;;;;;6.05;5.20;;;30.80;99.90;;;;;;4156493;28;20034;-68
2022/03/24 03:53:24;;;;;;;6.47;5.22;;;30.80;99.90;;;;;;4157814;28;20053;-68
2022/03/24 03:55:29;;;;;;;5.70;5.10;;;30.80;99.90;;;;;;4158982;28;20050;-68
2022/03/24 03:57:35;;;;;;;6.05;5.25;;;30.90;99.90;;;;;;4158702;28;20554;-68
2022/03/24 03:59:45;;;;;;;5.65;4.60;;;30.90;99.90;;;;;;4166793;28;20063;-67
2022/03/24 04:01:49;;;;;;;8.63;4.90;;;30.90;99.90;;;;;;4164550;28;20048;-68
2022/03/24 04:03:54;;;;;;;6.68;4.18;;;30.90;99.90;;;;;;4157391;28;20087;-68
2022/03/24 04:06:09;;;;;;;5.15;4.38;;;30.90;99.90;;;;;;4158917;28;20463;-68
2022/03/24 04:08:15;;;;;;;5.32;4.35;;;30.90;99.90;;;;;;4157592;28;20046;-68
2022/03/24 04:10:21;;;;;;;6.10;4.47;;;30.90;99.90;;;;;;4156522;28;20093;-68
2022/03/24 04:12:30;;;;;;;4.55;3.78;;;31.00;99.90;;;;;;4152631;28;20042;-68
2022/03/24 04:14:35;;;;;;;4.90;4.28;;;31.00;99.90;;;;;;4143471;28;20092;-68
2022/03/24 04:16:42;;;;;;;14.88;8.70;;;31.00;99.90;;;;;;4143528;28;20049;-68
2022/03/24 04:18:50;;;;;;;7.65;5.38;;;31.10;99.70;;;;;;4158056;28;20064;-68
2022/03/24 04:20:56;;;;;;;6.40;4.35;;;31.10;99.90;;;;;;4159708;28;20057;-68
2022/03/24 04:23:03;;;;;;;7.00;4.40;;;31.20;99.50;;;;;;4156470;28;20528;-68
2022/03/24 04:25:09;;;;;;;4.68;3.85;;;31.30;99.60;;;;;;4159516;28;20729;-67
2022/03/24 04:27:18;;;;;;;7.35;4.07;;;31.40;99.40;;;;;;4159123;28;20045;-67
2022/03/24 04:29:23;;;;;;;5.38;4.10;;;31.60;99.10;;;;;;4159279;28;20051;-67
2022/03/24 04:31:31;;;;;;;5.78;4.07;;;31.70;99.20;;;;;;4159471;28;20053;-68
2022/03/24 04:33:38;;;;;;;5.90;3.97;;;31.70;98.80;;;;;;4155056;28;20041;-68
2022/03/24 04:35:42;;;;;;;4.78;4.18;;;31.60;98.50;;;;;;4148809;28;20518;-68
2022/03/24 04:37:52;;;;;;;5.68;3.88;;;31.50;98.60;;;;;;4157755;28;20111;-68
2022/03/24 04:39:57;;;;;;;5.63;4.00;;;31.60;98.20;;;;;;4153974;28;20048;-68
2022/03/24 04:42:06;;;;;;;7.28;4.07;;;31.80;98.80;;;;;;4158217;28;20511;-68
2022/03/24 04:44:15;;;;;;;5.88;4.28;;;31.80;98.60;;;;;;4154104;28;20045;-68
2022/03/24 04:46:20;;;;;;;5.80;4.80;;;31.80;97.90;;;;;;4158152;28;20496;-67
2022/03/24 04:48:26;;;;;;;6.82;4.50;;;31.80;98.00;;;;;;4158664;28;20054;-68
2022/03/24 04:50:35;;;;;;;4.82;4.32;;;31.90;98.20;;;;;;4159525;28;20050;-67
2022/03/24 04:52:45;;;;;;;5.03;4.30;;;32.00;98.00;;;;;;4157677;28;20041;-67
2022/03/24 04:54:50;;;;;;;4.47;3.85;;;32.00;97.70;;;;;;4157273;28;20237;-67
2022/03/24 04:56:57;;;;;;;5.55;4.13;;;32.10;97.30;;;;;;4115283;28;20928;-67
2022/03/24 04:59:02;;;;;;;5.90;4.13;;;32.10;96.90;;;;;;4156870;28;20535;-67
2022/03/24 05:01:13;;;;;;;9.43;4.00;;;32.20;96.70;;;;;;4157903;28;20065;-67
2022/03/24 05:03:21;;;;;;;7.03;4.03;;;32.20;96.50;;;;;;4158202;28;20530;-68
2022/03/24 05:05:25;;;;;;;4.63;3.65;;;32.10;96.70;;;;;;4158010;28;20439;-67
2022/03/24 05:07:30;;;;;;;5.13;3.90;;;32.30;96.40;;;;;;4158856;28;20187;-67
2022/03/24 05:09:38;;;;;;;5.13;3.70;;;32.30;96.30;;;;;;4158459;28;20099;-68
2022/03/24 05:11:47;;;;;;;5.25;4.03;;;32.40;96.40;;;;;;4155722;28;20147;-68
2022/03/24 05:13:52;;;;;;;5.25;3.83;;;32.60;96.10;;;;;;4157884;28;20498;-68
2022/03/24 05:16:01;;;;;;;4.25;3.85;;;32.50;96.00;;;;;;4158437;28;20664;-67
2022/03/24 05:18:08;;;;;;;5.05;3.90;;;32.60;95.80;;;;;;4157901;28;20046;-67
2022/03/24 05:20:14;;;;;;;4.82;4.28;;;32.60;95.50;;;;;;4151747;28;20041;-67
2022/03/24 05:22:22;;;;;;;4.63;4.00;;;32.60;95.80;;;;;;4139510;28;20099;-67
2022/03/24 05:24:28;;;;;;;4.82;4.05;;;32.70;95.20;;;;;;4159403;28;20095;-68
2022/03/24 05:26:32;;;;;;;4.40;4.00;;;32.80;95.20;;;;;;4160023;28;20049;-67
2022/03/24 05:28:41;;;;;;;4.97;4.07;;;32.90;95.40;;;;;;4160649;28;20045;-67
2022/03/24 05:30:47;;;;;;;4.47;3.95;;;32.90;94.60;;;;;;4157419;28;20057;-67
2022/03/24 05:32:52;;;;;;;5.90;3.72;;;33.00;94.90;;;;;;4160510;28;20834;-68
2022/03/24 05:35:00;;;;;;;6.93;3.75;;;33.00;94.80;;;;;;4110156;28;20062;-68
2022/03/24 05:37:06;;;;;;;4.70;3.97;;;33.10;94.80;;;;;;4160569;28;20052;-68
2022/03/24 05:39:11;;;;;;;5.00;4.03;;;33.10;95.10;;;;;;4160610;28;20422;-68
2022/03/24 05:41:19;;;;;;;7.00;3.63;;;33.00;94.40;;;;;;4158976;28;20045;-68
2022/03/24 05:43:24;;;;;;;5.65;4.30;;;33.00;94.60;;;;;;4159988;28;20522;-68
2022/03/24 05:45:29;;;;;;;4.57;4.05;;;32.90;94.50;;;;;;4159598;28;20049;-68
2022/03/24 05:47:38;;;;;;;4.82;4.03;;;32.80;94.40;;;;;;4160669;28;20042;-68
2022/03/24 05:49:45;;;;;;;6.65;4.18;;;32.80;94.40;;;;;;4160747;28;20049;-67
2022/03/24 05:52:12;;;;;;;5.68;4.18;;;32.80;94.20;;;;;;4159834;28;20670;-68
2022/03/24 05:54:19;;;;;;;4.90;4.35;;;32.80;94.40;;;;;;4125221;28;20050;-68
2022/03/24 05:56:24;;;;;;;6.15;4.38;;;32.80;94.60;;;;;;4160853;28;20111;-67
2022/03/24 05:58:30;;;;;;;5.35;4.78;;;32.80;94.80;;;;;;4158502;28;20051;-68
2022/03/24 06:00:36;;;;;;;5.95;4.75;;;32.80;95.10;;;;;;4160552;28;20042;-68
2022/03/24 06:02:43;;;;;;;4.65;4.03;;;32.80;94.50;;;;;;4159417;28;20046;-68
2022/03/24 06:04:48;;;;;;;6.63;4.80;;;32.80;94.80;;;;;;4159575;28;20084;-68
2022/03/24 06:06:57;;;;;;;7.90;4.72;;;32.80;94.80;;;;;;4159166;28;20056;-68
2022/03/24 06:09:03;;;;;;;7.00;4.95;;;33.00;94.40;;;;;;4160130;28;20041;-68
2022/03/24 06:11:11;;;;;;;7.55;4.68;;;33.10;93.90;;;;;;4159187;28;20451;-68
2022/03/24 06:13:19;;;;;;;4.90;4.28;;;33.20;94.10;;;;;;4160614;28;20170;-67
2022/03/24 06:15:24;;;;;;;5.80;4.50;;;33.20;93.70;;;;;;4160262;28;20045;-67
2022/03/24 06:17:29;;;;;;;5.32;4.30;;;33.20;93.40;;;;;;4161009;28;20124;-67
2022/03/24 06:19:39;;;;;;;7.38;4.97;;;33.20;93.40;;;;;;4160401;28;20052;-68
2022/03/24 06:21:44;;;;;;;6.35;4.80;;;33.30;93.60;;;;;;4159974;28;20061;-69
2022/03/24 06:23:50;;;;;;;10.63;4.85;;;33.50;93.70;;;;;;4142998;28;20111;-67
2022/03/24 06:25:55;;;;;;;4.97;4.45;;;33.60;93.20;;;;;;4160275;28;20151;-67
2022/03/24 06:28:04;;;;;;;5.15;4.60;;;33.70;92.50;;;;;;4161462;28;20053;-68
2022/03/24 06:30:09;;;;;;;5.57;4.32;;;33.70;92.40;;;;;;4160477;28;20427;-67
2022/03/24 06:32:17;;;;;;;5.60;4.90;;;33.70;92.50;;;;;;4125687;28;20133;-67
2022/03/24 06:34:22;;;;;;;6.65;4.97;;;33.50;92.60;;;;;;4160150;28;20103;-68
2022/03/24 06:36:27;;;;;;;6.32;4.95;;;33.60;92.30;;;;;;4161040;28;20053;-67
2022/03/24 06:38:44;;;;;;;5.40;4.82;;;33.50;92.30;;;;;;4141666;28;20052;-66
2022/03/24 06:40:54;;;;;;;7.22;4.93;;;33.60;92.40;;;;;;4158865;28;20140;-67
2022/03/24 06:42:59;;;;;;;7.13;4.30;;;33.70;92.30;;;;;;4160278;28;20045;-68
2022/03/24 06:45:06;;;;;;;6.30;4.22;;;33.80;92.10;;;;;;4160012;28;20068;-68
2022/03/24 06:47:13;;;;;;;5.65;3.95;;;33.80;91.60;;;;;;4159417;28;20099;-68
2022/03/24 06:49:20;;;;;;;5.10;4.45;;;33.80;91.90;;;;;;4160370;28;20049;-68
2022/03/24 06:51:27;;;;;;;5.28;4.55;;;33.80;91.10;;;;;;4162915;28;20072;-67
2022/03/24 06:53:32;;;;;;;7.32;4.50;;;33.70;91.10;;;;;;4159686;28;20038;-68
2022/03/24 06:55:38;;;;;;;5.57;4.80;;;33.80;91.70;;;;;;4159692;28;20225;-67
2022/03/24 06:57:44;;;;;;;5.20;4.25;;;33.80;91.30;;;;;;4158993;28;20751;-68
2022/03/24 06:59:53;;;;;;;4.82;3.83;;;33.80;91.10;;;;;;4157481;28;20069;-68
2022/03/24 07:02:02;;;;;;;5.40;4.45;;;33.80;91.50;;;;;;4158956;28;20061;-68
2022/03/24 07:04:08;;;;;;;5.45;4.50;;;33.70;91.70;;;;;;4139534;28;20141;-67
2022/03/24 07:06:13;;;;;;;7.03;4.70;;;33.80;91.60;;;;;;4159952;28;20046;-68
2022/03/24 07:08:19;;;;;;;6.10;4.88;;;33.80;91.80;;;;;;4158588;28;20104;-68
2022/03/24 07:10:26;;;;;;;5.88;4.35;;;33.90;91.40;;;;;;4157114;28;20069;-68
2022/03/24 07:12:30;;;;;;;5.30;4.18;;;33.80;91.20;;;;;;4158904;28;20067;-68
2022/03/24 07:14:35;;;;;;;4.50;4.00;;;33.90;91.50;;;;;;4159591;28;20037;-67
2022/03/24 07:16:44;;;;;;;6.72;4.63;;;33.90;91.80;;;;;;4159870;28;20052;-68
2022/03/24 07:18:48;;;;;;;4.80;4.10;;;33.90;91.80;;;;;;4159693;28;20057;-68
2022/03/24 07:20:56;;;;;;;6.35;4.25;;;33.90;91.80;;;;;;4124437;28;20564;-67
2022/03/24 07:23:03;;;;;;;5.88;4.40;;;34.00;91.80;;;;;;4124117;28;20136;-67
2022/03/24 07:25:09;;;;;;;4.88;4.38;;;34.10;92.10;;;;;;4123471;28;20137;-68
2022/03/24 07:27:15;;;;;;;5.55;4.65;;;34.00;91.80;;;;;;4125242;28;20042;-68
2022/03/24 07:29:41;;;;;;;5.97;4.60;;;34.00;91.10;;;;;;4125006;28;20089;-68
2022/03/24 07:31:48;;;;;;;5.97;4.45;;;34.00;90.90;;;;;;4108843;28;20062;-67
2022/03/24 07:33:55;;;;;;;4.80;4.20;;;34.00;91.30;;;;;;4124432;28;20046;-68
2022/03/24 07:36:00;;;;;;;4.93;4.00;;;34.10;91.30;;;;;;4123854;28;20066;-68
2022/03/24 07:38:06;;;;;;;6.32;4.65;;;34.00;91.30;;;;;;4125591;28;20058;-69
2022/03/24 07:40:11;;;;;;;5.15;4.35;;;34.10;91.20;;;;;;4123871;28;20046;-68
2022/03/24 07:42:21;;;;;;;5.72;4.40;;;34.10;91.30;;;;;;4124084;28;20074;-68
2022/03/24 07:44:26;;;;;;;7.10;4.78;;;34.10;91.10;;;;;;4122565;28;20050;-67
2022/03/24 07:46:31;;;;;;;4.80;4.28;;;34.10;90.80;;;;;;4121625;28;20050;-67
2022/03/24 07:48:38;;;;;;;6.32;4.05;;;34.10;90.90;;;;;;4124096;28;20050;-68
2022/03/24 07:50:46;;;;;;;7.18;4.45;;;34.10;90.80;;;;;;4123650;28;20050;-67
2022/03/24 07:52:51;;;;;;;5.78;4.05;;;34.10;90.60;;;;;;4150181;28;20049;-68
2022/03/24 07:55:07;;;;;;;5.07;4.50;;;34.10;90.60;;;;;;4159672;28;20044;-67
2022/03/24 07:57:14;;;;;;;7.22;4.22;;;34.10;90.60;;;;;;4157415;28;20044;-68
2022/03/24 07:59:20;;;;;;;7.38;4.65;;;34.10;90.40;;;;;;4159600;28;20045;-68
2022/03/24 08:01:31;;;;;;;5.70;5.03;;;34.20;90.40;;;;;;4158140;28;20045;-68
2022/03/24 08:03:39;;;;;;;5.60;4.50;;;34.20;90.50;;;;;;4157804;28;20061;-68
2022/03/24 08:05:44;;;;;;;6.18;4.63;;;34.20;90.20;;;;;;4158785;28;20520;-69
2022/03/24 08:07:56;;;;;;;7.95;4.80;;;34.30;90.30;;;;;;4158260;28;20100;-68
2022/03/24 08:10:01;;;;;;;9.00;4.82;;;34.20;90.30;;;;;;4159290;28;20115;-68
2022/03/24 08:12:08;;;;;;;6.93;4.60;;;34.20;90.40;;;;;;4159187;28;20037;-68
2022/03/24 08:14:17;;;;;;;8.52;4.28;;;34.10;90.30;;;;;;4158089;28;20486;-68
2022/03/24 08:16:26;;;;;;;6.07;4.35;;;34.10;90.30;;;;;;4159385;28;20587;-68
2022/03/24 08:18:31;;;;;;;6.10;4.63;;;34.10;90.10;;;;;;4158266;28;20049;-68
2022/03/24 08:20:51;;;;;;;6.80;4.38;;;34.20;90.00;;;;;;4153873;28;20068;-67
2022/03/24 08:22:57;;;;;;;5.22;4.63;;;34.30;90.10;;;;;;4158101;28;20064;-69
2022/03/24 08:25:02;;;;;;;6.47;4.80;;;34.40;90.10;;;;;;4158620;28;20112;-68
2022/03/24 08:27:16;;;;;;;6.40;4.05;;;34.40;90.00;;;;;;4158906;28;20057;-68
2022/03/24 08:29:21;;;;;;;5.88;4.57;;;34.50;89.50;;;;;;4159376;28;20144;-69
2022/03/24 08:31:27;;;;;;;5.85;4.72;;;34.60;89.40;;;;;;4161898;28;20079;-68
2022/03/24 08:33:33;;;;;;;6.15;4.72;;;34.60;89.30;;;;;;4161808;28;20180;-69
2022/03/24 08:35:39;;;;;;;6.00;4.05;;;34.70;89.70;;;;;;4176137;28;20126;-68
2022/03/24 08:37:44;;;;;;;6.25;4.55;;;34.70;89.60;;;;;;4158758;28;20443;-68
2022/03/24 08:39:50;;;;;;;4.82;4.32;;;34.60;89.00;;;;;;4159304;28;20116;-68
2022/03/24 08:41:55;;;;;;;7.22;4.57;;;34.60;88.70;;;;;;4158768;28;20042;-68
2022/03/24 08:44:00;;;;;;;5.43;4.90;;;34.40;89.20;;;;;;4159487;28;20053;-68
2022/03/24 08:46:09;;;;;;;5.85;4.45;;;34.40;89.30;;;;;;4159289;28;20448;-68
2022/03/24 08:48:14;;;;;;;6.85;4.90;;;34.30;89.50;;;;;;4158852;28;20045;-68
2022/03/24 08:50:21;;;;;;;5.90;4.70;;;34.30;90.10;;;;;;4158800;28;20046;-69
2022/03/24 08:52:28;;;;;;;4.82;4.30;;;34.20;89.50;;;;;;4155974;28;20046;-68
2022/03/24 08:54:33;;;;;;;5.65;4.35;;;34.20;89.40;;;;;;4158394;28;20115;-69
2022/03/24 08:56:38;;;;;;;7.68;5.07;;;34.30;90.00;;;;;;4158134;28;20048;-68
2022/03/24 08:58:46;;;;;;;5.80;4.38;;;34.30;89.70;;;;;;4161838;28;20060;-69
2022/03/24 09:00:51;;;;;;;6.95;4.50;;;34.30;89.50;;;;;;4160533;28;20091;-68
2022/03/24 09:02:57;;;;;;;5.18;4.50;;;34.30;89.50;;;;;;4159822;28;20628;-68
2022/03/24 09:05:05;;;;;;;5.25;4.35;;;34.30;89.30;;;;;;4160840;28;20138;-68
2022/03/24 09:07:11;;;;;;;5.90;4.22;;;34.40;89.50;;;;;;4160763;28;20775;-68
2022/03/24 09:09:17;;;;;;;6.32;4.40;;;34.40;89.10;;;;;;4161626;28;20149;-68
2022/03/24 09:11:28;;;;;;;5.70;4.30;;;34.40;88.60;;;;;;4126191;28;20061;-68
2022/03/24 09:13:34;;;;;;;7.45;4.18;;;34.40;89.50;;;;;;4126649;28;20483;-68
2022/03/24 09:15:39;;;;;;;6.53;4.30;;;34.40;89.30;;;;;;4128056;28;20543;-68
2022/03/24 09:17:46;;;;;;;6.00;4.50;;;34.40;89.40;;;;;;4133246;28;20072;-68
2022/03/24 09:19:51;;;;;;;4.90;4.30;;;34.30;90.20;;;;;;4132927;28;20237;-68
2022/03/24 09:21:57;;;;;;;5.03;4.53;;;34.20;90.00;;;;;;4125551;28;20508;-67
2022/03/24 09:24:11;;;;;;;9.13;4.45;;;34.20;89.90;;;;;;4104705;28;20075;-68
2022/03/24 09:26:16;;;;;;;4.90;4.05;;;34.20;90.00;;;;;;4125970;28;20568;-68
2022/03/24 09:28:37;;;;;;;6.13;4.78;;;34.10;89.70;;;;;;4125608;28;20065;-67
2022/03/24 09:30:45;;;;;;;5.47;3.90;;;34.10;89.20;;;;;;4124100;28;20579;-67
2022/03/24 09:32:54;;;;;;;5.57;4.20;;;34.00;89.70;;;;;;4132819;28;20564;-67
2022/03/24 09:34:58;;;;;;;5.30;4.63;;;34.00;90.00;;;;;;4108579;28;20097;-68
2022/03/24 09:37:09;;;;;;;6.88;5.18;;;33.90;89.60;;;;;;4154467;28;20064;-68
2022/03/24 09:39:15;;;;;;;7.28;4.63;;;33.90;89.30;;;;;;4160727;28;20817;-67
2022/03/24 09:41:21;;;;;;;12.82;6.35;;;33.90;89.30;;;;;;4160298;28;20091;-68
2022/03/24 09:43:25;;;;;;;10.10;6.78;;;33.90;89.30;;;;;;4159084;28;20042;-68
2022/03/24 09:45:30;;;;;;;7.50;5.70;;;33.80;89.20;;;;;;4160917;28;20060;-67
2022/03/24 09:47:38;;;;;;;5.35;4.82;;;33.70;88.90;;;;;;4124135;28;20050;-67
2022/03/24 09:49:43;;;;;;;6.03;4.30;;;33.70;88.80;;;;;;4125878;28;20097;-67
2022/03/24 09:51:48;;;;;;;6.45;4.10;;;33.60;87.80;;;;;;4125534;28;20156;-68
2022/03/24 09:53:54;;;;;;;10.38;5.05;;;33.60;87.40;;;;;;4123945;28;20046;-68
2022/03/24 09:56:02;;;;;;;8.25;4.95;;;33.50;87.70;;;;;;4108408;28;20054;-68
2022/03/24 09:58:09;;;;;;;7.43;4.88;;;33.40;87.10;;;;;;4109626;28;20089;-67
2022/03/24 10:00:16;;;;;;;5.93;4.13;;;33.40;87.30;;;;;;4110370;28;20133;-68
2022/03/24 10:02:36;;;;;;;5.95;4.90;;;33.40;87.80;;;;;;4101167;28;20222;-69
2022/03/24 10:05:02;;;;;;;11.85;5.00;;;33.30;86.20;;;;;;4110882;28;20058;-68
2022/03/24 10:07:07;;;;;;;10.93;4.70;;;33.20;86.50;;;;;;4110310;28;20089;-68
2022/03/24 10:09:15;;;;;;;6.80;5.00;;;32.80;88.80;;;;;;4107734;28;20057;-67
2022/03/24 10:11:21;;;;;;;12.75;4.47;;;32.00;91.70;;;;;;4110063;28;20046;-69
2022/03/24 10:13:54;;;;;;;6.80;4.07;;;31.40;93.00;;;;;;4110027;28;20053;-70
2022/03/24 10:16:02;;;;;;;8.43;4.57;;;30.70;94.10;;;;;;4110678;28;20051;-69
2022/03/24 10:18:06;;;;;;;8.80;3.75;;;30.50;94.50;;;;;;4111969;28;20047;-69
2022/03/24 10:20:15;;;;;;;7.20;4.30;;;30.60;94.40;;;;;;4103981;28;20109;-69
2022/03/24 10:22:24;;;;;;;7.43;4.20;;;30.80;94.30;;;;;;4081853;29;20093;-72
2022/03/24 10:24:29;;;;;;;6.00;4.10;;;30.80;94.40;;;;;;4094243;29;20055;-71
2022/03/24 10:26:41;;;;;;;8.00;4.03;;;30.90;94.30;;;;;;4094291;29;20677;-71
2022/03/24 10:29:04;;;;;;;7.13;4.38;;;30.60;94.80;;;;;;4094129;29;20090;-71
2022/03/24 10:31:09;;;;;;;8.55;3.88;;;30.00;95.90;;;;;;4103007;28;20112;-72
2022/03/24 10:33:33;;;;;;;9.15;4.22;;;29.70;96.40;;;;;;4124752;28;20114;-69
2022/03/24 10:35:39;;;;;;;7.93;4.80;;;30.10;96.20;;;;;;4125004;28;20046;-71
2022/03/24 10:37:52;;;;;;;13.50;4.95;;;30.40;95.90;;;;;;4124810;28;20071;-71
2022/03/24 10:40:05;;;;;;;6.60;4.80;;;30.30;96.10;;;;;;4122861;28;20065;-71
2022/03/24 10:42:17;;;;;;;7.60;4.82;;;30.10;96.40;;;;;;4125342;28;20104;-72
2022/03/24 10:44:22;;;;;;;8.43;4.43;;;30.30;96.20;;;;;;4123316;28;20042;-68
2022/03/24 10:46:28;;;;;;;7.80;4.70;;;30.60;96.10;;;;;;4109369;28;20078;-70
2022/03/24 10:48:35;;;;;;;8.27;5.07;;;30.40;96.10;;;;;;4125661;28;20051;-71
2022/03/24 10:50:41;;;;;;;9.13;5.22;;;30.00;96.90;;;;;;4129101;28;20136;-72
2022/03/24 10:53:02;;;;;;;8.63;4.75;;;29.80;97.10;;;;;;4158335;28;20752;-70
2022/03/24 10:55:08;;;;;;;10.48;4.88;;;29.60;97.10;;;;;;4159935;28;20045;-71
2022/03/24 10:57:14;;;;;;;10.13;4.70;;;29.50;97.20;;;;;;4160724;28;20066;-72
2022/03/24 10:59:19;;;;;;;9.13;3.90;;;29.50;97.10;;;;;;4142471;28;20053;-71
2022/03/24 11:01:27;;;;;;;7.95;4.65;;;29.40;97.30;;;;;;4159773;28;20470;-71
2022/03/24 11:03:32;;;;;;;7.07;4.63;;;29.30;97.40;;;;;;4157518;28;20058;-72